Time;durP1;ratioP1;P1;durP2;ratioP2;P2;SDS_P1;SDS_P2;PMS_P1;PMS_P2;Temp;Humidity;BMP_temperature;BMP_pressure;BME280_temperature;BME280_humidity;BME280_pressure;Samples;Min_cycle;Max_cycle;Signal;HPM_P1;HPM_P2
2023/03/18 00:00:08;;;;;;;7.53;3.60;;;;;;;14.18;53.08;100242.38;683348;29;1097;-79
2023/03/18 00:00:31;;;;;;;5.45;3.30;;;;;;;14.19;53.29;100246.75;683436;29;1342;-78
2023/03/18 00:01:02;;;;;;;5.53;3.30;;;;;;;14.11;52.99;100235.34;680914;29;1277;-78
2023/03/18 00:01:23;;;;;;;4.43;3.17;;;;;;;14.16;53.01;100244.13;683290;29;1534;-78
2023/03/18 00:01:44;;;;;;;4.47;3.28;;;;;;;14.15;52.77;100234.50;683502;29;1053;-79
2023/03/18 00:02:04;;;;;;;4.60;3.10;;;;;;;14.19;52.85;100244.13;686070;28;1300;-77
2023/03/18 00:02:25;;;;;;;5.23;3.10;;;;;;;14.20;53.00;100248.50;683470;29;1028;-78
2023/03/18 00:02:47;;;;;;;5.85;3.00;;;;;;;14.15;53.05;100239.75;683687;29;1257;-78
2023/03/18 00:03:07;;;;;;;4.72;2.97;;;;;;;14.19;52.65;100241.50;683412;29;1208;-78
2023/03/18 00:03:32;;;;;;;5.17;3.20;;;;;;;14.21;52.67;100242.38;683348;29;1259;-78
2023/03/18 00:03:53;;;;;;;4.20;3.13;;;;;;;14.13;52.74;100225.72;686241;28;1241;-78
2023/03/18 00:04:15;;;;;;;4.27;3.23;;;;;;;14.19;52.93;100238.03;685979;28;1127;-78
2023/03/18 00:04:36;;;;;;;5.25;3.30;;;;;;;14.21;52.66;100242.38;683152;29;847;-78
2023/03/18 00:04:57;;;;;;;7.97;3.13;;;;;;;14.14;52.91;100235.38;685956;28;1215;-78
2023/03/18 00:05:18;;;;;;;8.40;3.10;;;;;;;14.19;52.88;100238.03;688427;28;1029;-78
2023/03/18 00:05:39;;;;;;;4.78;3.15;;;;;;;14.16;52.89;100232.75;688652;28;1367;-78
2023/03/18 00:06:12;;;;;;;4.97;3.05;;;;;;;14.21;52.86;100247.63;683296;29;1326;-77
2023/03/18 00:06:35;;;;;;;5.40;3.20;;;;;;;14.15;53.16;100236.22;683064;29;1193;-78
2023/03/18 00:06:56;;;;;;;6.20;3.30;;;;;;;14.13;53.08;100232.72;680428;29;1312;-78
2023/03/18 00:07:17;;;;;;;6.03;3.17;;;;;;;14.14;53.28;100238.00;680304;29;1170;-78
2023/03/18 00:07:38;;;;;;;5.57;3.15;;;;;;;14.17;53.04;100240.63;680600;29;1133;-78
2023/03/18 00:08:00;;;;;;;6.40;3.20;;;;;;;14.14;53.22;100229.25;683369;29;773;-78
2023/03/18 00:08:21;;;;;;;7.30;3.45;;;;;;;14.17;53.12;100240.63;688188;28;1239;-78
2023/03/18 00:08:42;;;;;;;6.85;3.30;;;;;;;14.11;53.23;100240.59;685865;28;1141;-78
2023/03/18 00:09:04;;;;;;;6.05;3.15;;;;;;;14.15;53.32;100239.75;685325;28;1195;-78
2023/03/18 00:09:25;;;;;;;5.40;3.00;;;;;;;14.14;53.41;100238.00;685670;28;1091;-78
2023/03/18 00:09:46;;;;;;;5.78;3.03;;;;;;;14.09;53.08;100232.66;683247;28;859;-78
2023/03/18 00:10:09;;;;;;;5.43;2.95;;;;;;;14.18;53.38;100252.88;691158;28;1091;-78
2023/03/18 00:10:31;;;;;;;5.45;3.10;;;;;;;14.09;53.40;100234.44;685704;28;1091;-78
2023/03/18 00:10:52;;;;;;;6.00;3.20;;;;;;;14.04;53.38;100229.16;685870;28;1289;-79
2023/03/18 00:11:15;;;;;;;5.93;3.20;;;;;;;14.07;53.45;100228.31;685644;28;1100;-78
2023/03/18 00:11:36;;;;;;;5.10;3.10;;;;;;;14.02;53.77;100223.00;680485;29;938;-78
2023/03/18 00:11:57;;;;;;;4.15;3.00;;;;;;;14.11;53.70;100243.22;688546;28;827;-78
2023/03/18 00:12:17;;;;;;;4.93;2.90;;;;;;;14.10;53.47;100238.81;685404;28;1267;-78
2023/03/18 00:12:40;;;;;;;5.97;3.00;;;;;;;14.03;53.45;100231.78;685905;28;879;-79
2023/03/18 00:13:03;;;;;;;4.97;2.90;;;;;;;14.03;53.79;100237.91;685772;28;1318;-78
2023/03/18 00:13:24;;;;;;;4.43;3.30;;;;;;;13.95;53.82;100224.72;687598;28;1044;-78
2023/03/18 00:13:45;;;;;;;4.82;3.40;;;;;;;13.98;53.98;100232.63;691255;28;1966;-78
2023/03/18 00:14:07;;;;;;;4.45;3.40;;;;;;;14.01;53.86;100238.75;688226;28;1235;-78
2023/03/18 00:14:28;;;;;;;4.32;3.30;;;;;;;14.01;54.00;100238.75;682938;29;1230;-78
2023/03/18 00:14:49;;;;;;;4.03;3.25;;;;;;;14.07;53.89;100249.28;685656;28;1463;-78
2023/03/18 00:15:15;;;;;;;4.00;3.33;;;;;;;14.02;53.96;100237.91;680333;29;1871;-78
2023/03/18 00:15:36;;;;;;;3.97;3.05;;;;;;;14.04;54.10;100233.53;683104;29;934;-78
2023/03/18 00:15:57;;;;;;;3.70;3.20;;;;;;;14.10;53.82;100246.69;680531;29;1353;-78
2023/03/18 00:16:20;;;;;;;3.45;3.15;;;;;;;14.01;54.08;100231.75;685412;28;1242;-78
2023/03/18 00:16:43;;;;;;;3.97;3.20;;;;;;;14.00;54.08;100231.78;685741;28;1230;-78
2023/03/18 00:17:04;;;;;;;5.30;3.53;;;;;;;14.05;53.76;100235.28;682394;28;1356;-78
2023/03/18 00:17:25;;;;;;;5.00;3.40;;;;;;;14.10;53.98;100238.81;680342;29;1011;-78
2023/03/18 00:17:47;;;;;;;5.65;3.60;;;;;;;14.10;53.89;100241.44;680425;29;1166;-79
2023/03/18 00:18:08;;;;;;;5.93;3.42;;;;;;;13.98;53.77;100219.53;680303;29;1212;-78
2023/03/18 00:18:29;;;;;;;6.53;3.33;;;;;;;14.07;53.83;100233.56;680183;29;1281;-78
2023/03/18 00:18:49;;;;;;;5.45;3.05;;;;;;;14.00;53.83;100231.78;680550;29;1150;-81
2023/03/18 00:19:11;;;;;;;4.13;2.80;;;;;;;14.05;53.65;100230.91;680263;29;1070;-76
2023/03/18 00:19:32;;;;;;;4.93;2.90;;;;;;;14.03;53.77;100232.66;682941;29;1261;-78
2023/03/18 00:19:53;;;;;;;7.17;3.20;;;;;;;14.02;53.54;100230.03;683034;29;1461;-79
2023/03/18 00:20:17;;;;;;;7.10;3.20;;;;;;;14.05;53.44;100240.53;680249;29;1159;-78
2023/03/18 00:20:37;;;;;;;5.45;3.10;;;;;;;14.00;53.59;100226.53;680520;29;781;-78
2023/03/18 00:20:59;;;;;;;4.23;3.10;;;;;;;14.04;53.66;100236.16;680565;29;737;-79
2023/03/18 00:21:22;;;;;;;4.85;3.03;;;;;;;14.07;53.71;100244.06;684533;28;1093;-78
2023/03/18 00:21:43;;;;;;;7.07;3.38;;;;;;;14.03;53.62;100234.41;688464;28;804;-78
2023/03/18 00:22:03;;;;;;;6.88;3.30;;;;;;;14.08;53.38;100251.03;685665;28;1260;-78
2023/03/18 00:22:24;;;;;;;6.05;3.30;;;;;;;14.08;53.78;100241.41;685515;28;1036;-78
2023/03/18 00:22:45;;;;;;;7.07;3.27;;;;;;;14.04;53.65;100233.53;688495;28;862;-79
2023/03/18 00:23:07;;;;;;;7.10;3.30;;;;;;;14.04;53.92;100241.41;688365;28;1091;-77
2023/03/18 00:23:28;;;;;;;6.53;3.45;;;;;;;14.02;53.95;100236.13;688242;28;1119;-78
2023/03/18 00:23:53;;;;;;;5.00;3.30;;;;;;;14.06;54.14;100243.16;688971;28;1034;-79
2023/03/18 00:24:14;;;;;;;5.50;3.13;;;;;;;13.97;54.17;100220.38;688207;28;993;-79
2023/03/18 00:24:35;;;;;;;5.35;3.05;;;;;;;14.01;54.25;100233.53;682983;28;1107;-79
2023/03/18 00:24:56;;;;;;;5.93;3.03;;;;;;;13.99;54.32;100236.13;677584;29;1377;-78
2023/03/18 00:25:17;;;;;;;4.68;3.03;;;;;;;13.99;54.31;100230.88;682785;29;1061;-79
2023/03/18 00:25:38;;;;;;;5.28;3.20;;;;;;;14.08;54.36;100248.41;688525;28;852;-78
2023/03/18 00:26:00;;;;;;;5.20;3.30;;;;;;;14.09;54.15;100252.78;685812;28;1165;-78
2023/03/18 00:26:22;;;;;;;5.20;3.30;;;;;;;14.06;54.16;100248.41;688143;28;1169;-78
2023/03/18 00:26:43;;;;;;;5.75;3.30;;;;;;;14.07;53.99;100250.16;688398;28;1501;-78
2023/03/18 00:27:04;;;;;;;6.43;3.38;;;;;;;14.06;54.18;100248.41;688307;28;1189;-79
2023/03/18 00:27:25;;;;;;;8.17;3.47;;;;;;;14.03;53.75;100234.41;682898;29;1038;-78
2023/03/18 00:27:45;;;;;;;7.72;3.40;;;;;;;14.04;53.84;100233.53;683183;29;1032;-77
2023/03/18 00:28:07;;;;;;;5.83;3.20;;;;;;;14.09;53.71;100247.56;683065;29;1183;-78
2023/03/18 00:28:28;;;;;;;6.30;3.30;;;;;;;14.01;53.59;100225.66;682822;28;1611;-78
2023/03/18 00:28:49;;;;;;;5.30;3.20;;;;;;;14.04;53.75;100233.53;685732;28;1124;-78
2023/03/18 00:29:10;;;;;;;4.90;3.20;;;;;;;14.01;53.91;100228.28;685456;28;1342;-78
2023/03/18 00:29:30;;;;;;;3.75;3.10;;;;;;;14.06;53.82;100237.91;685613;28;1195;-79
2023/03/18 00:29:51;;;;;;;4.43;3.20;;;;;;;14.02;53.92;100223.00;683135;29;954;-78
2023/03/18 00:30:12;;;;;;;4.97;3.40;;;;;;;14.02;53.70;100222.16;682983;29;1282;-78
2023/03/18 00:30:36;;;;;;;5.68;3.53;;;;;;;14.12;53.84;100242.34;685583;28;1296;-79
2023/03/18 00:31:03;;;;;;;5.40;3.38;;;;;;;14.11;53.79;100240.59;683070;29;1228;-78
2023/03/18 00:31:26;;;;;;;6.40;3.20;;;;;;;14.06;54.00;100230.03;682935;29;982;-78
2023/03/18 00:31:46;;;;;;;6.00;3.03;;;;;;;14.02;54.02;100222.16;683105;29;1232;-79
2023/03/18 00:32:07;;;;;;;8.68;3.22;;;;;;;14.05;53.63;100230.03;682936;29;1081;-78
2023/03/18 00:32:28;;;;;;;9.32;3.40;;;;;;;14.10;53.73;100236.19;682831;28;1115;-78
2023/03/18 00:32:49;;;;;;;9.50;3.50;;;;;;;14.07;54.16;100233.56;683000;29;1212;-78
2023/03/18 00:33:10;;;;;;;6.67;3.40;;;;;;;14.02;54.10;100219.53;685532;28;1161;-78
2023/03/18 00:33:31;;;;;;;5.53;3.60;;;;;;;14.06;53.91;100229.16;685420;28;1112;-78
2023/03/18 00:33:52;;;;;;;6.10;3.80;;;;;;;14.06;53.91;100237.03;683052;29;1966;-78
2023/03/18 00:34:13;;;;;;;5.45;3.50;;;;;;;14.09;53.96;100242.31;682893;28;1176;-79
2023/03/18 00:34:35;;;;;;;4.38;3.38;;;;;;;14.04;53.76;100238.78;683040;29;1204;-78
2023/03/18 00:34:56;;;;;;;4.07;3.10;;;;;;;14.07;53.35;100231.78;683138;29;785;-78
2023/03/18 00:35:16;;;;;;;4.43;3.10;;;;;;;14.08;53.34;100232.69;680289;29;1168;-78
2023/03/18 00:35:38;;;;;;;5.80;3.50;;;;;;;14.08;53.44;100235.31;680440;29;737;-79
2023/03/18 00:35:58;;;;;;;5.80;3.80;;;;;;;14.05;53.46;100232.66;683090;29;1370;-78
2023/03/18 00:36:24;;;;;;;5.27;3.57;;;;;;;14.08;53.68;100236.16;685375;28;1175;-78
2023/03/18 00:36:49;;;;;;;4.47;3.10;;;;;;;14.08;53.55;100235.31;682804;29;875;-78
2023/03/18 00:37:17;;;;;;;6.38;3.25;;;;;;;14.05;53.47;100230.91;690875;28;1235;-79
2023/03/18 00:37:38;;;;;;;8.00;3.20;;;;;;;14.05;53.48;100230.91;685737;28;823;-78
2023/03/18 00:37:59;;;;;;;7.38;3.20;;;;;;;14.05;53.70;100233.53;685289;28;1519;-78
2023/03/18 00:38:20;;;;;;;7.15;2.95;;;;;;;14.03;53.65;100234.41;685078;28;1283;-79
2023/03/18 00:38:42;;;;;;;7.70;3.67;;;;;;;13.98;53.56;100232.63;691093;28;1165;-78
2023/03/18 00:39:03;;;;;;;8.27;3.60;;;;;;;14.05;53.65;100249.28;688252;28;1374;-78
2023/03/18 00:39:25;;;;;;;5.72;3.53;;;;;;;14.05;54.17;100248.38;688149;28;1057;-78
2023/03/18 00:39:46;;;;;;;3.50;2.90;;;;;;;14.06;53.70;100247.50;683066;29;1391;-78
2023/03/18 00:40:16;;;;;;;5.75;3.40;;;;;;;14.03;53.79;100250.13;685703;28;1290;-77
2023/03/18 00:40:52;;;;;;;9.20;3.40;;;;;;;13.92;54.08;100226.47;685826;28;874;-78
2023/03/18 00:41:14;;;;;;;6.90;3.10;;;;;;;14.00;54.04;100253.63;685404;28;2030;-78
2023/03/18 00:41:36;;;;;;;6.47;3.50;;;;;;;13.98;53.93;100244.88;685725;28;892;-78
2023/03/18 00:41:57;;;;;;;5.75;3.45;;;;;;;13.98;53.83;100243.13;683023;29;906;-78
2023/03/18 00:42:18;;;;;;;6.15;3.60;;;;;;;13.94;54.23;100243.97;682864;28;1335;-78
2023/03/18 00:42:46;;;;;;;5.07;3.40;;;;;;;13.89;54.02;100235.19;685762;28;1367;-78
2023/03/18 00:43:07;;;;;;;5.68;3.20;;;;;;;13.91;54.00;100238.72;688311;28;1065;-78
2023/03/18 00:43:32;;;;;;;5.97;3.38;;;;;;;13.92;54.20;100240.47;685528;28;1314;-78
2023/03/18 00:43:54;;;;;;;7.75;3.80;;;;;;;13.98;54.33;100260.59;685697;28;1094;-79
2023/03/18 00:44:15;;;;;;;7.38;3.67;;;;;;;13.97;54.21;100254.47;682862;29;1161;-79
2023/03/18 00:44:35;;;;;;;6.15;3.40;;;;;;;13.92;54.06;100243.09;688361;28;1088;-78
2023/03/18 00:44:56;;;;;;;3.80;3.10;;;;;;;13.98;54.01;100255.34;691135;28;848;-78
2023/03/18 00:45:17;;;;;;;4.30;3.10;;;;;;;13.87;54.21;100229.06;682971;29;1137;-78
2023/03/18 00:45:39;;;;;;;4.55;3.10;;;;;;;13.90;54.00;100242.19;686177;28;1169;-79
2023/03/18 00:46:00;;;;;;;4.50;3.10;;;;;;;13.91;54.02;100241.34;685867;28;1290;-79
2023/03/18 00:46:36;;;;;;;3.63;3.20;;;;;;;13.89;54.10;100235.19;688366;28;1205;-78
2023/03/18 00:46:57;;;;;;;4.10;3.20;;;;;;;13.93;54.32;100247.47;691667;28;811;-78
2023/03/18 00:47:17;;;;;;;4.93;3.15;;;;;;;13.91;53.84;100238.72;685761;28;1059;-78
2023/03/18 00:47:38;;;;;;;6.20;3.30;;;;;;;13.96;53.86;100247.47;681056;29;1345;-78
2023/03/18 00:47:58;;;;;;;7.10;3.23;;;;;;;13.93;53.80;100247.47;678452;29;1394;-78
2023/03/18 00:48:19;;;;;;;7.90;3.60;;;;;;;13.92;54.09;100240.47;678254;29;1098;-79
2023/03/18 00:48:40;;;;;;;7.23;3.37;;;;;;;13.93;53.83;100236.97;686250;28;1342;-78
2023/03/18 00:49:03;;;;;;;6.18;3.55;;;;;;;13.99;53.95;100257.09;683806;28;1288;-78
2023/03/18 00:49:25;;;;;;;5.90;3.30;;;;;;;13.97;53.75;100254.47;683543;28;1111;-78
2023/03/18 00:49:46;;;;;;;6.88;3.50;;;;;;;13.92;53.95;100240.47;683921;28;895;-77
2023/03/18 00:50:07;;;;;;;6.57;3.22;;;;;;;13.93;53.81;100247.47;686535;28;1004;-78
2023/03/18 00:50:28;;;;;;;5.90;3.17;;;;;;;13.91;53.96;100241.34;688091;28;1327;-77
2023/03/18 00:50:49;;;;;;;5.07;3.30;;;;;;;13.96;54.00;100251.84;689016;28;1230;-77
2023/03/18 00:51:12;;;;;;;5.70;3.30;;;;;;;13.91;53.84;100246.59;688339;28;1045;-78
2023/03/18 00:51:36;;;;;;;6.28;3.28;;;;;;;13.95;54.00;100250.09;686390;28;1084;-77
2023/03/18 00:51:57;;;;;;;5.30;3.10;;;;;;;13.92;53.98;100237.84;689328;28;1972;-78
2023/03/18 00:52:18;;;;;;;4.87;3.00;;;;;;;13.95;53.97;100250.97;684013;28;1116;-78
2023/03/18 00:52:39;;;;;;;4.75;3.05;;;;;;;13.93;53.86;100244.84;684191;29;947;-78
2023/03/18 00:52:59;;;;;;;6.20;3.50;;;;;;;13.92;53.81;100235.22;686996;28;1045;-77
2023/03/18 00:53:20;;;;;;;5.63;3.50;;;;;;;13.92;53.98;100237.84;683417;28;1120;-78
2023/03/18 00:53:43;;;;;;;6.85;3.60;;;;;;;13.94;53.77;100237.84;683596;29;1173;-78
2023/03/18 00:54:06;;;;;;;5.70;3.15;;;;;;;13.98;53.95;100257.97;686146;28;1949;-78
2023/03/18 00:54:27;;;;;;;5.22;2.90;;;;;;;13.91;54.03;100245.69;683718;28;1189;-78
2023/03/18 00:54:49;;;;;;;4.90;2.90;;;;;;;13.95;54.02;100250.09;686375;28;1475;-79
2023/03/18 00:55:09;;;;;;;4.50;2.90;;;;;;;13.92;53.98;100250.97;686255;28;1252;-78
2023/03/18 00:55:31;;;;;;;5.50;3.13;;;;;;;13.89;54.06;100245.69;686227;28;1093;-78
2023/03/18 00:55:52;;;;;;;5.72;3.30;;;;;;;13.87;54.16;100242.19;683607;29;1352;-78
2023/03/18 00:56:16;;;;;;;7.25;3.58;;;;;;;13.88;53.92;100238.69;686075;28;1266;-78
2023/03/18 00:56:38;;;;;;;8.35;3.80;;;;;;;13.88;53.88;100243.94;685927;28;1359;-78
2023/03/18 00:56:59;;;;;;;7.10;3.70;;;;;;;13.84;54.16;100239.56;683555;29;1915;-77
2023/03/18 00:57:20;;;;;;;6.45;3.55;;;;;;;13.89;54.09;100245.69;685637;28;1129;-78
2023/03/18 00:57:41;;;;;;;4.90;3.40;;;;;;;13.88;54.06;100249.16;683443;29;776;-77
2023/03/18 00:58:02;;;;;;;5.32;3.75;;;;;;;13.94;53.79;100257.09;683238;29;1151;-78
2023/03/18 00:58:23;;;;;;;6.88;3.80;;;;;;;13.86;54.36;100245.69;683105;29;1090;-78
2023/03/18 00:58:45;;;;;;;7.88;3.75;;;;;;;13.93;54.08;100268.44;682281;28;1289;-77
2023/03/18 00:59:07;;;;;;;7.55;3.60;;;;;;;13.85;54.42;100250.03;683111;29;1110;-78
2023/03/18 00:59:28;;;;;;;7.03;3.55;;;;;;;13.86;54.19;100250.91;685566;28;1260;-78
2023/03/18 00:59:49;;;;;;;7.25;3.45;;;;;;;13.85;53.98;100250.03;685916;28;820;-78
2023/03/18 01:00:10;;;;;;;5.72;3.40;;;;;;;13.91;54.22;100259.69;685698;28;1141;-78
2023/03/18 01:00:31;;;;;;;5.65;3.50;;;;;;;13.92;54.15;100266.69;682851;29;1358;-78
2023/03/18 01:00:52;;;;;;;5.93;3.58;;;;;;;13.82;54.29;100243.88;685786;28;1432;-78
2023/03/18 01:01:14;;;;;;;6.22;3.72;;;;;;;13.87;54.18;100257.91;685163;28;1284;-78
2023/03/18 01:01:35;;;;;;;4.82;3.42;;;;;;;13.84;54.35;100250.91;682988;29;1186;-78
2023/03/18 01:01:56;;;;;;;5.10;3.10;;;;;;;13.84;54.64;100255.28;677914;29;1817;-78
2023/03/18 01:02:17;;;;;;;5.63;3.20;;;;;;;13.91;54.56;100264.94;680105;29;1449;-78
2023/03/18 01:02:38;;;;;;;5.97;3.35;;;;;;;13.87;54.48;100255.28;685720;28;1208;-78
2023/03/18 01:02:59;;;;;;;5.67;3.33;;;;;;;13.92;54.73;100265.81;683129;29;1287;-78
2023/03/18 01:03:19;;;;;;;5.60;3.28;;;;;;;13.92;54.60;100266.69;685341;28;1143;-78
2023/03/18 01:03:41;;;;;;;5.63;3.40;;;;;;;13.95;54.50;100271.09;683090;29;851;-78
2023/03/18 01:04:03;;;;;;;6.43;3.55;;;;;;;13.83;54.53;100253.53;680351;29;1313;-78
2023/03/18 01:04:24;;;;;;;7.22;3.75;;;;;;;13.87;54.47;100257.06;680154;29;1306;-78
2023/03/18 01:04:45;;;;;;;7.95;3.67;;;;;;;13.95;54.42;100276.34;680460;29;1079;-79
2023/03/18 01:05:06;;;;;;;11.60;3.63;;;;;;;13.87;54.50;100255.28;685588;28;1195;-78
2023/03/18 01:05:27;;;;;;;10.80;3.50;;;;;;;13.86;54.18;100256.16;680293;29;983;-78
2023/03/18 01:05:47;;;;;;;10.63;3.57;;;;;;;13.88;54.33;100258.81;685712;28;844;-78
2023/03/18 01:06:11;;;;;;;5.50;3.25;;;;;;;13.92;54.24;100263.19;682973;29;1052;-78
2023/03/18 01:06:34;;;;;;;6.78;3.40;;;;;;;13.91;54.38;100264.06;680172;29;1300;-79
2023/03/18 01:06:56;;;;;;;6.57;3.20;;;;;;;13.89;54.34;100269.28;683021;28;1147;-78
2023/03/18 01:07:17;;;;;;;5.72;3.20;;;;;;;13.88;54.51;100253.56;680023;29;1207;-79
2023/03/18 01:07:38;;;;;;;5.63;3.75;;;;;;;13.90;54.66;100257.91;683062;29;776;-78
2023/03/18 01:07:58;;;;;;;5.45;3.60;;;;;;;13.92;54.37;100271.94;683062;28;891;-78
2023/03/18 01:08:20;;;;;;;5.97;3.67;;;;;;;13.81;54.63;100252.63;685489;28;1113;-77
2023/03/18 01:08:41;;;;;;;5.07;3.08;;;;;;;13.85;54.43;100265.75;680367;29;871;-78
2023/03/18 01:09:04;;;;;;;5.07;3.30;;;;;;;13.79;54.63;100251.75;682922;28;1321;-78
2023/03/18 01:09:24;;;;;;;5.57;3.70;;;;;;;13.83;54.82;100262.25;682935;28;1069;-78
2023/03/18 01:09:45;;;;;;;6.07;3.90;;;;;;;13.80;54.80;100264.00;685622;28;1246;-78
2023/03/18 01:10:08;;;;;;;6.00;3.67;;;;;;;13.82;54.96;100265.75;688135;28;1169;-78
2023/03/18 01:10:29;;;;;;;6.35;3.45;;;;;;;13.74;54.91;100246.47;685490;28;1229;-78
2023/03/18 01:10:49;;;;;;;5.30;3.10;;;;;;;13.78;55.23;100257.88;685845;28;788;-78
2023/03/18 01:11:10;;;;;;;5.03;3.17;;;;;;;13.75;55.03;100252.63;680239;29;1129;-78
2023/03/18 01:11:32;;;;;;;4.80;3.00;;;;;;;13.78;54.94;100260.47;680278;29;1176;-79
2023/03/18 01:11:52;;;;;;;5.63;3.30;;;;;;;13.69;54.95;100242.94;683022;28;851;-78
2023/03/18 01:12:14;;;;;;;6.00;3.42;;;;;;;13.75;54.93;100247.38;682805;29;1039;-79
2023/03/18 01:12:34;;;;;;;6.10;3.70;;;;;;;13.68;55.05;100249.94;682766;29;1824;-78
2023/03/18 01:12:56;;;;;;;5.80;3.83;;;;;;;13.70;55.22;100250.81;683149;28;760;-78
2023/03/18 01:13:18;;;;;;;5.53;3.58;;;;;;;13.66;55.20;100241.16;682677;29;1163;-78
2023/03/18 01:13:39;;;;;;;6.15;3.70;;;;;;;13.63;55.20;100233.28;683057;28;1255;-78
2023/03/18 01:14:00;;;;;;;6.35;3.70;;;;;;;13.65;55.30;100247.28;682951;29;1902;-78
2023/03/18 01:14:21;;;;;;;6.93;3.80;;;;;;;13.70;55.47;100256.06;682642;29;1297;-78
2023/03/18 01:14:42;;;;;;;6.40;3.80;;;;;;;13.62;55.27;100249.88;683043;29;1152;-78
2023/03/18 01:15:04;;;;;;;6.33;3.70;;;;;;;13.64;55.50;100255.16;682923;29;1179;-78
2023/03/18 01:15:25;;;;;;;6.35;3.65;;;;;;;13.63;55.55;100248.16;682841;28;1120;-78
2023/03/18 01:15:46;;;;;;;6.20;3.47;;;;;;;13.61;55.36;100260.34;680523;29;785;-78
2023/03/18 01:16:08;;;;;;;7.00;3.58;;;;;;;13.55;55.18;100240.22;677548;29;1124;-78
2023/03/18 01:16:29;;;;;;;5.60;3.40;;;;;;;13.61;55.12;100253.38;682815;28;1408;-79
2023/03/18 01:16:49;;;;;;;5.47;3.50;;;;;;;13.66;55.17;100254.28;682986;28;887;-78
2023/03/18 01:17:10;;;;;;;5.63;3.40;;;;;;;13.58;55.28;100242.84;685501;28;1119;-78
2023/03/18 01:17:31;;;;;;;6.40;3.75;;;;;;;13.65;55.28;100263.00;682832;29;1327;-78
2023/03/18 01:17:55;;;;;;;7.45;4.00;;;;;;;13.63;55.31;100259.50;685715;28;810;-78
2023/03/18 01:18:17;;;;;;;6.65;3.83;;;;;;;13.57;54.77;100243.72;685298;28;1053;-78
2023/03/18 01:18:39;;;;;;;6.32;3.83;;;;;;;13.62;55.32;100251.63;680376;29;1165;-79
2023/03/18 01:19:00;;;;;;;6.72;3.97;;;;;;;13.57;55.27;100243.72;682981;28;865;-78
2023/03/18 01:19:21;;;;;;;5.75;3.90;;;;;;;13.56;55.59;100247.22;687893;28;1123;-78
2023/03/18 01:19:43;;;;;;;6.78;3.90;;;;;;;13.61;55.44;100253.38;688332;28;1227;-78
2023/03/18 01:20:04;;;;;;;6.15;3.88;;;;;;;13.54;55.50;100243.72;688297;28;1120;-78
2023/03/18 01:20:25;;;;;;;6.13;3.97;;;;;;;13.61;55.44;100247.25;682718;29;1890;-79
2023/03/18 01:20:49;;;;;;;6.10;3.80;;;;;;;13.54;55.64;100246.34;680406;29;816;-78
2023/03/18 01:21:11;;;;;;;5.22;3.50;;;;;;;13.52;55.40;100237.59;680304;29;1108;-79
2023/03/18 01:21:39;;;;;;;4.18;3.40;;;;;;;13.49;55.61;100235.81;677747;29;1126;-79
2023/03/18 01:22:01;;;;;;;5.20;3.40;;;;;;;13.51;55.38;100243.72;680369;29;1512;-78
2023/03/18 01:22:24;;;;;;;5.35;3.30;;;;;;;13.55;55.53;100246.34;682660;29;1535;-78
2023/03/18 01:22:45;;;;;;;5.93;3.45;;;;;;;13.57;55.34;100251.59;685677;28;1250;-79
2023/03/18 01:23:07;;;;;;;8.38;3.72;;;;;;;13.54;55.75;100243.72;682013;29;1168;-79
2023/03/18 01:23:29;;;;;;;9.88;3.80;;;;;;;13.56;55.65;100250.72;682717;28;1243;-78
2023/03/18 01:23:50;;;;;;;9.13;3.45;;;;;;;13.52;55.50;100248.09;683072;29;941;-78
2023/03/18 01:24:10;;;;;;;6.65;3.30;;;;;;;13.52;55.32;100248.09;682819;28;1243;-79
2023/03/18 01:24:31;;;;;;;6.27;3.40;;;;;;;13.48;55.62;100241.03;677479;29;1169;-78
2023/03/18 01:24:52;;;;;;;6.03;3.55;;;;;;;13.46;55.88;100245.41;677867;29;769;-78
2023/03/18 01:25:18;;;;;;;5.28;3.55;;;;;;;13.51;55.63;100246.34;677389;29;1015;-78
2023/03/18 01:25:44;;;;;;;4.80;3.60;;;;;;;13.49;55.78;100248.03;685592;28;2204;-78
2023/03/18 01:26:08;;;;;;;6.93;3.63;;;;;;;13.52;55.58;100255.94;685532;28;1072;-78
2023/03/18 01:26:30;;;;;;;8.20;4.00;;;;;;;13.58;55.63;100266.44;682818;29;1183;-78
2023/03/18 01:26:53;;;;;;;8.60;4.00;;;;;;;13.57;55.73;100259.47;680156;29;977;-78
2023/03/18 01:27:14;;;;;;;7.25;4.00;;;;;;;13.56;55.88;100252.47;677486;29;1159;-78
2023/03/18 01:27:38;;;;;;;7.22;3.88;;;;;;;13.59;55.66;100259.47;680154;29;1340;-78
2023/03/18 01:27:59;;;;;;;7.03;3.65;;;;;;;13.48;55.85;100241.94;682945;29;1301;-78
2023/03/18 01:28:21;;;;;;;6.13;3.47;;;;;;;13.59;55.71;100252.50;685210;28;1108;-78
2023/03/18 01:28:42;;;;;;;6.10;3.90;;;;;;;13.49;55.87;100237.56;685641;28;1969;-78
2023/03/18 01:29:04;;;;;;;6.03;3.80;;;;;;;13.60;55.76;100261.22;685457;28;1273;-79
2023/03/18 01:29:25;;;;;;;7.85;4.13;;;;;;;13.56;55.92;100252.47;685415;28;1072;-78
2023/03/18 01:29:46;;;;;;;7.30;3.90;;;;;;;13.51;55.95;100241.09;685706;28;909;-78
2023/03/18 01:30:12;;;;;;;7.82;3.70;;;;;;;13.43;55.89;100226.19;685350;28;1969;-78
2023/03/18 01:30:34;;;;;;;7.30;3.67;;;;;;;13.43;55.94;100223.56;685558;28;1031;-78
2023/03/18 01:30:56;;;;;;;6.78;3.80;;;;;;;13.47;56.02;100231.44;688221;28;1407;-78
2023/03/18 01:31:18;;;;;;;5.40;3.80;;;;;;;13.40;56.13;100231.38;687902;28;1221;-78
2023/03/18 01:31:40;;;;;;;5.82;4.38;;;;;;;13.38;56.09;100227.88;688261;28;1005;-79
2023/03/18 01:32:06;;;;;;;8.27;4.50;;;;;;;13.36;56.06;100223.47;682821;29;1340;-78
2023/03/18 01:32:27;;;;;;;9.18;4.30;;;;;;;13.33;56.16;100226.94;685406;28;1144;-78
2023/03/18 01:32:48;;;;;;;9.35;4.00;;;;;;;13.40;56.40;100233.13;685758;28;823;-78
2023/03/18 01:33:09;;;;;;;6.57;3.80;;;;;;;13.34;56.48;100226.09;685423;28;1296;-78
2023/03/18 01:33:30;;;;;;;6.38;3.97;;;;;;;13.32;56.00;100227.81;685082;28;1148;-78
2023/03/18 01:33:51;;;;;;;5.97;4.15;;;;;;;13.31;56.53;100226.06;685552;28;2001;-78
2023/03/18 01:34:13;;;;;;;5.68;4.05;;;;;;;13.42;56.25;100250.59;682787;29;1109;-78
2023/03/18 01:34:41;;;;;;;5.05;3.63;;;;;;;13.38;56.32;100240.09;682973;28;930;-78
2023/03/18 01:35:02;;;;;;;5.27;3.60;;;;;;;13.35;56.49;100235.72;682389;29;1477;-78
2023/03/18 01:35:24;;;;;;;4.38;3.60;;;;;;;13.29;56.52;100240.91;688012;28;1233;-78
2023/03/18 01:35:46;;;;;;;5.10;3.90;;;;;;;13.35;56.49;100238.34;688281;28;1372;-78
2023/03/18 01:36:08;;;;;;;5.30;3.97;;;;;;;13.48;56.44;100246.28;685496;28;1045;-79
2023/03/18 01:36:29;;;;;;;7.18;4.30;;;;;;;13.48;56.24;100234.06;685275;28;1173;-78
2023/03/18 01:37:00;;;;;;;8.23;4.30;;;;;;;13.44;55.89;100232.28;685473;28;820;-78
2023/03/18 01:37:24;;;;;;;7.25;4.10;;;;;;;13.58;55.74;100248.09;682611;28;1460;-78
2023/03/18 01:37:54;;;;;;;7.28;4.00;;;;;;;13.49;55.83;100229.69;682947;28;1345;-79
2023/03/18 01:38:15;;;;;;;7.15;3.70;;;;;;;13.57;55.96;100247.25;680045;29;1098;-78
2023/03/18 01:38:36;;;;;;;6.10;3.65;;;;;;;13.55;55.98;100242.84;685604;28;1503;-78
2023/03/18 01:39:05;;;;;;;5.30;3.75;;;;;;;13.59;55.51;100252.50;685665;28;1212;-78
2023/03/18 01:39:25;;;;;;;5.38;3.75;;;;;;;13.58;55.66;100250.72;688155;28;1127;-78
2023/03/18 01:39:46;;;;;;;5.65;3.70;;;;;;;13.52;55.82;100234.97;685538;28;1051;-78
2023/03/18 01:40:14;;;;;;;5.38;3.70;;;;;;;13.51;55.87;100230.59;690748;28;1082;-78
2023/03/18 01:40:41;;;;;;;6.28;4.00;;;;;;;13.52;55.78;100237.59;685495;28;1480;-78
2023/03/18 01:41:11;;;;;;;5.78;3.90;;;;;;;13.50;56.00;100236.69;685648;28;855;-79
2023/03/18 01:41:31;;;;;;;4.38;3.70;;;;;;;13.50;56.28;100247.16;685376;28;1396;-78
2023/03/18 01:41:52;;;;;;;4.73;3.80;;;;;;;13.38;56.50;100230.50;682974;29;1028;-78
2023/03/18 01:42:24;;;;;;;4.80;3.40;;;;;;;13.31;56.34;100241.78;685270;28;1214;-78
2023/03/18 01:42:51;;;;;;;5.93;3.40;;;;;;;13.32;56.35;100240.94;685646;28;883;-78
2023/03/18 01:43:26;;;;;;;6.10;3.63;;;;;;;13.32;56.35;100251.41;687287;28;1320;-78
2023/03/18 01:43:48;;;;;;;5.20;3.90;;;;;;;13.26;56.44;100241.75;685595;28;885;-79
2023/03/18 01:44:34;;;;;;;5.28;3.90;;;;;;;13.35;56.72;100259.31;685484;28;1196;-78
2023/03/18 01:45:34;;;;;;;5.70;4.10;;;;;;;13.30;56.82;100250.53;683935;28;1448;-78
2023/03/18 01:45:58;;;;;;;6.90;3.80;;;;;;;13.34;56.44;100247.03;683382;28;1406;-78
2023/03/18 01:46:35;;;;;;;7.18;3.92;;;;;;;13.40;56.38;100260.22;679638;29;1220;-78
2023/03/18 01:46:56;;;;;;;4.85;3.63;;;;;;;13.31;56.33;100236.56;674844;29;1136;-77